Time;durP1;ratioP1;P1;durP2;ratioP2;P2;SDS_P1;SDS_P2;PMS_P1;PMS_P2;Temp;Humidity;BMP_temperature;BMP_pressure;BME280_temperature;BME280_humidity;BME280_pressure;Samples;Min_cycle;Max_cycle;Signal;HPM_P1;HPM_P2
2023/03/22 00:00:56;;;;;;;13.43;5.47;;;10.50;99.90;;;;;;5068819;28;20035;-82
2023/03/22 00:03:22;;;;;;;10.70;4.82;;;10.60;99.90;;;;;;5052971;28;20477;-82
2023/03/22 00:05:48;;;;;;;16.52;6.55;;;10.60;99.90;;;;;;5069568;28;20480;-81
2023/03/22 00:08:14;;;;;;;13.88;6.68;;;10.50;99.90;;;;;;5037569;28;20481;-81
2023/03/22 00:10:41;;;;;;;13.68;6.03;;;10.40;99.90;;;;;;5069766;28;20044;-81
2023/03/22 00:13:08;;;;;;;11.52;6.00;;;10.30;99.90;;;;;;5068556;28;20040;-81
2023/03/22 00:15:35;;;;;;;13.93;5.05;;;10.40;99.90;;;;;;5051565;28;20032;-81
2023/03/22 00:18:04;;;;;;;11.35;4.68;;;10.40;99.90;;;;;;5068008;28;20123;-81
2023/03/22 00:20:32;;;;;;;11.35;5.70;;;10.40;99.90;;;;;;5068405;28;20037;-81
2023/03/22 00:23:01;;;;;;;14.35;6.80;;;10.30;99.90;;;;;;5068054;28;20046;-81
2023/03/22 00:25:26;;;;;;;14.23;6.03;;;10.30;99.90;;;;;;5068458;28;20052;-82
2023/03/22 00:27:52;;;;;;;16.40;5.88;;;10.20;99.90;;;;;;5067822;28;20044;-81
2023/03/22 00:30:18;;;;;;;8.60;4.35;;;10.20;99.90;;;;;;5069546;28;20037;-82
2023/03/22 00:32:44;;;;;;;11.18;5.15;;;10.30;99.90;;;;;;5069279;28;20036;-81
2023/03/22 00:35:10;;;;;;;15.50;5.05;;;10.30;99.90;;;;;;5052159;28;20046;-81
2023/03/22 00:37:40;;;;;;;13.70;5.10;;;10.30;99.90;;;;;;5069727;28;20326;-82
2023/03/22 00:40:08;;;;;;;9.82;4.65;;;10.30;99.90;;;;;;5052785;28;20399;-82
2023/03/22 00:42:35;;;;;;;9.95;4.50;;;10.20;99.90;;;;;;5067550;28;20037;-82
2023/03/22 00:45:01;;;;;;;9.85;3.55;;;10.20;99.90;;;;;;5051811;28;20056;-82
2023/03/22 00:47:26;;;;;;;9.60;4.43;;;10.20;99.90;;;;;;5069570;28;20048;-82
2023/03/22 00:49:52;;;;;;;9.17;3.50;;;10.20;99.90;;;;;;5068947;28;20041;-82
2023/03/22 00:52:18;;;;;;;7.27;3.40;;;10.20;99.90;;;;;;5069435;28;20310;-82
2023/03/22 00:54:44;;;;;;;10.05;4.57;;;10.20;99.90;;;;;;5069219;28;20283;-82
2023/03/22 00:57:11;;;;;;;8.15;3.53;;;10.20;99.90;;;;;;5035440;28;20048;-81
2023/03/22 00:59:38;;;;;;;13.82;4.38;;;10.20;99.90;;;;;;5050632;28;20044;-82
2023/03/22 01:02:05;;;;;;;4.85;3.10;;;10.20;99.90;;;;;;5068600;28;20037;-82
2023/03/22 01:04:31;;;;;;;;;;;10.20;99.90;;;;;;5053150;28;20036;-82
2023/03/22 01:07:02;;;;;;;5.85;3.05;;;10.10;99.90;;;;;;5069221;28;19916;-81
2023/03/22 01:09:30;;;;;;;9.65;3.05;;;10.10;99.90;;;;;;5053486;28;20457;-82
2023/03/22 01:12:00;;;;;;;8.23;2.75;;;10.10;99.90;;;;;;5068422;28;20041;-82
2023/03/22 01:14:26;;;;;;;12.77;2.90;;;10.00;99.90;;;;;;5069380;28;20342;-82
2023/03/22 01:16:56;;;;;;;;;;;10.00;99.90;;;;;;5069028;28;20139;-82
2023/03/22 01:19:26;;;;;;;11.52;2.78;;;10.00;99.90;;;;;;5069338;28;19924;-82
2023/03/22 01:21:53;;;;;;;10.00;2.70;;;10.00;99.90;;;;;;5068687;28;20040;-82
2023/03/22 01:24:19;;;;;;;8.95;2.85;;;10.00;99.90;;;;;;5068980;28;20032;-82
2023/03/22 01:26:45;;;;;;;5.47;2.40;;;10.00;99.90;;;;;;5068721;28;20037;-81
2023/03/22 01:29:11;;;;;;;3.70;1.73;;;10.00;99.90;;;;;;5068735;28;20043;-82
2023/03/22 01:31:37;;;;;;;10.55;2.55;;;10.00;99.90;;;;;;5052203;28;20419;-84
2023/03/22 01:34:03;;;;;;;7.43;2.55;;;10.00;99.90;;;;;;5066134;28;20110;-81
2023/03/22 01:36:29;;;;;;;7.57;2.55;;;10.00;99.90;;;;;;5068770;28;20055;-81
2023/03/22 01:38:55;;;;;;;6.25;2.08;;;9.90;99.90;;;;;;5054608;28;20038;-81
2023/03/22 01:41:21;;;;;;;8.55;2.45;;;9.90;99.90;;;;;;5072238;28;20028;-81
2023/03/22 01:44:08;;;;;;;6.72;1.65;;;9.90;99.90;;;;;;5072050;28;20029;-81
2023/03/22 01:46:33;;;;;;;6.50;2.05;;;9.90;99.90;;;;;;5072306;28;20102;-81
2023/03/22 01:49:01;;;;;;;4.40;1.90;;;9.90;99.90;;;;;;5071653;28;20036;-81
2023/03/22 01:51:27;;;;;;;9.73;2.22;;;9.90;99.90;;;;;;5055430;28;20102;-82
2023/03/22 01:54:07;;;;;;;5.30;2.08;;;9.90;99.90;;;;;;5055205;28;20117;-82
2023/03/22 01:56:37;;;;;;;10.00;2.38;;;9.90;99.90;;;;;;5055347;28;20040;-82
2023/03/22 01:59:04;;;;;;;6.70;2.65;;;9.80;99.90;;;;;;5071789;28;20062;-81
2023/03/22 02:01:30;;;;;;;3.75;1.63;;;9.80;99.90;;;;;;5072508;28;20492;-82
2023/03/22 02:04:32;;;;;;;7.30;1.70;;;9.80;99.90;;;;;;5071967;28;20111;-82
2023/03/22 02:07:01;;;;;;;10.00;1.80;;;9.80;99.90;;;;;;5070068;28;20059;-81
2023/03/22 02:09:28;;;;;;;7.38;1.52;;;9.80;99.90;;;;;;5071900;28;20467;-82
2023/03/22 02:12:15;;;;;;;5.38;1.50;;;9.80;99.90;;;;;;5072120;28;20040;-81
2023/03/22 02:14:55;;;;;;;5.60;1.40;;;9.80;99.90;;;;;;5066957;28;20041;-82
2023/03/22 02:17:37;;;;;;;6.32;1.30;;;9.80;99.90;;;;;;5071243;28;20044;-82
2023/03/22 02:20:08;;;;;;;6.50;1.35;;;9.80;99.90;;;;;;5054037;28;20377;-81
2023/03/22 02:22:57;;;;;;;4.97;1.25;;;9.80;99.90;;;;;;5055109;28;20040;-81
2023/03/22 02:25:40;;;;;;;4.93;1.48;;;9.80;99.90;;;;;;5070066;28;20516;-82
2023/03/22 02:28:43;;;;;;;2.38;0.85;;;9.80;99.90;;;;;;5053314;28;20043;-81
2023/03/22 02:31:33;;;;;;;4.88;1.40;;;9.80;99.90;;;;;;5070629;28;20040;-81
2023/03/22 02:34:14;;;;;;;5.15;1.33;;;9.90;99.90;;;;;;5071362;28;20448;-81
2023/03/22 02:37:16;;;;;;;7.50;1.38;;;9.80;99.90;;;;;;5071447;28;20093;-81
2023/03/22 02:39:57;;;;;;;4.55;1.58;;;9.80;99.90;;;;;;5069523;28;20036;-82
2023/03/22 02:42:41;;;;;;;8.00;1.13;;;9.80;99.90;;;;;;5069297;28;20037;-82
2023/03/22 02:45:23;;;;;;;6.20;1.40;;;9.80;99.90;;;;;;5070543;28;20084;-82
2023/03/22 02:47:53;;;;;;;8.60;1.13;;;9.80;99.90;;;;;;5069661;28;20036;-82
2023/03/22 02:50:40;;;;;;;5.90;0.98;;;9.90;99.90;;;;;;5070309;28;20047;-81
2023/03/22 02:53:14;;;;;;;10.15;1.25;;;9.90;99.90;;;;;;5068351;28;20051;-82
2023/03/22 02:55:49;;;;;;;13.13;1.42;;;9.90;99.90;;;;;;5071408;28;20464;-81
2023/03/22 02:58:36;;;;;;;7.30;1.33;;;10.00;99.90;;;;;;5068933;28;20072;-82
2023/03/22 03:01:07;;;;;;;3.72;1.35;;;10.00;99.90;;;;;;5069935;28;20073;-82
2023/03/22 03:03:36;;;;;;;3.42;0.90;;;10.00;99.90;;;;;;5070892;28;20106;-82
2023/03/22 03:06:13;;;;;;;3.55;1.25;;;10.00;99.90;;;;;;5054906;28;20467;-82
2023/03/22 03:08:41;;;;;;;6.45;1.30;;;10.00;99.90;;;;;;5052242;28;20195;-81
2023/03/22 03:11:08;;;;;;;4.70;0.98;;;10.00;99.90;;;;;;5070600;28;20044;-81
2023/03/22 03:13:33;;;;;;;5.65;1.05;;;10.00;99.90;;;;;;5069573;28;20071;-81
2023/03/22 03:16:01;;;;;;;4.45;1.25;;;10.00;99.90;;;;;;5069986;28;20079;-82
2023/03/22 03:19:02;;;;;;;9.23;1.20;;;10.00;99.90;;;;;;5053591;28;20049;-82
2023/03/22 03:21:45;;;;;;;4.15;1.13;;;10.00;99.90;;;;;;5069793;28;20119;-81
2023/03/22 03:24:26;;;;;;;4.88;0.80;;;9.90;99.90;;;;;;5070251;28;20050;-81
2023/03/22 03:26:57;;;;;;;4.80;0.93;;;9.90;99.90;;;;;;5053793;28;20040;-81
2023/03/22 03:29:33;;;;;;;4.50;1.10;;;9.90;99.90;;;;;;5070810;28;20075;-81
2023/03/22 03:32:36;;;;;;;4.05;1.20;;;9.90;99.90;;;;;;5070808;28;20093;-81
2023/03/22 03:35:22;;;;;;;10.88;1.75;;;9.90;99.90;;;;;;5068183;28;20044;-82
2023/03/22 03:37:56;;;;;;;7.63;1.35;;;9.90;99.90;;;;;;5070171;28;20060;-81
2023/03/22 03:40:31;;;;;;;6.82;1.33;;;9.80;99.90;;;;;;5053833;28;20487;-81
2023/03/22 03:43:01;;;;;;;4.63;1.27;;;9.80;99.90;;;;;;5070222;28;20052;-81
2023/03/22 03:45:27;;;;;;;8.32;1.48;;;9.90;99.90;;;;;;5070229;28;20544;-81
2023/03/22 03:47:56;;;;;;;;;;;9.90;99.90;;;;;;5070780;28;20041;-81
2023/03/22 03:50:23;;;;;;;8.70;1.70;;;9.90;99.90;;;;;;5070334;28;19923;-82
2023/03/22 03:52:51;;;;;;;5.70;1.30;;;9.90;99.90;;;;;;5053786;28;20052;-80
2023/03/22 03:55:16;;;;;;;6.72;1.50;;;9.80;99.90;;;;;;5052998;28;20093;-81
2023/03/22 03:57:45;;;;;;;8.20;1.63;;;9.80;99.90;;;;;;5070291;28;20040;-81
2023/03/22 04:00:14;;;;;;;5.82;1.40;;;9.80;99.90;;;;;;5052621;28;20040;-81
2023/03/22 04:02:41;;;;;;;6.30;1.30;;;9.80;99.90;;;;;;5053855;28;20048;-81
2023/03/22 04:05:08;;;;;;;8.88;1.92;;;9.70;99.90;;;;;;5070437;28;20033;-81
2023/03/22 04:07:34;;;;;;;10.02;1.83;;;9.60;99.90;;;;;;5070109;28;20083;-81
2023/03/22 04:10:00;;;;;;;7.32;1.30;;;9.70;99.90;;;;;;5053848;28;20373;-81
2023/03/22 04:12:26;;;;;;;5.82;1.50;;;9.70;99.90;;;;;;5069840;28;20048;-82
2023/03/22 04:14:51;;;;;;;7.55;1.40;;;9.80;99.90;;;;;;5053570;28;20407;-81
2023/03/22 04:17:17;;;;;;;13.43;2.13;;;9.70;99.90;;;;;;5050801;28;20404;-81
2023/03/22 04:19:45;;;;;;;5.05;1.70;;;9.70;99.90;;;;;;5069950;28;20072;-80
2023/03/22 04:22:13;;;;;;;4.75;1.70;;;9.70;99.90;;;;;;5053875;28;20490;-81
2023/03/22 04:24:48;;;;;;;8.95;1.80;;;9.70;99.90;;;;;;5053806;28;20048;-81
2023/03/22 04:27:19;;;;;;;9.20;1.67;;;9.60;99.90;;;;;;5037717;28;20079;-81
2023/03/22 04:29:49;;;;;;;5.45;2.13;;;9.60;99.90;;;;;;5053286;28;20036;-81
2023/03/22 04:32:17;;;;;;;3.03;1.52;;;9.60;99.90;;;;;;5069883;28;20384;-81
2023/03/22 04:34:45;;;;;;;9.13;2.15;;;9.60;99.90;;;;;;5067873;28;20130;-82
2023/03/22 04:37:11;;;;;;;9.82;2.08;;;9.70;99.90;;;;;;5069693;28;20036;-82
2023/03/22 04:39:37;;;;;;;7.20;1.73;;;9.60;99.90;;;;;;5053202;28;20037;-82
2023/03/22 04:42:03;;;;;;;5.75;1.63;;;9.70;99.90;;;;;;5069412;28;20048;-82
2023/03/22 04:44:29;;;;;;;8.50;2.00;;;9.80;99.90;;;;;;5052504;28;20064;-82
2023/03/22 04:46:55;;;;;;;8.60;1.92;;;9.80;99.90;;;;;;5069661;28;20131;-82
2023/03/22 04:49:21;;;;;;;6.93;2.17;;;9.90;99.90;;;;;;5069473;28;20396;-82
2023/03/22 04:51:47;;;;;;;8.60;2.85;;;10.00;99.90;;;;;;5052624;28;20040;-81
2023/03/22 04:54:12;;;;;;;10.32;2.70;;;10.00;99.90;;;;;;5052260;28;20047;-82
2023/03/22 04:56:38;;;;;;;13.38;2.67;;;10.00;99.90;;;;;;5069890;28;20068;-81
2023/03/22 04:59:04;;;;;;;8.00;2.58;;;10.00;99.90;;;;;;5052908;28;20032;-82
2023/03/22 05:01:29;;;;;;;8.15;2.88;;;10.00;99.90;;;;;;5051984;28;20049;-81
2023/03/22 05:03:55;;;;;;;5.32;2.63;;;10.10;99.90;;;;;;5068308;28;20085;-82
2023/03/22 05:06:21;;;;;;;11.80;3.25;;;10.00;99.90;;;;;;5034355;28;20037;-82
2023/03/22 05:08:46;;;;;;;6.93;3.25;;;10.00;99.90;;;;;;5051754;28;20037;-82
2023/03/22 05:11:15;;;;;;;10.20;3.45;;;10.10;99.90;;;;;;5052005;28;20039;-81
2023/03/22 05:13:41;;;;;;;6.47;3.65;;;10.10;99.90;;;;;;5057388;28;20046;-83
2023/03/22 05:16:08;;;;;;;6.22;2.83;;;10.00;99.90;;;;;;5055598;28;20029;-82
2023/03/22 05:18:33;;;;;;;7.45;3.47;;;10.10;99.90;;;;;;5056461;28;20044;-82
2023/03/22 05:21:02;;;;;;;7.43;3.08;;;10.10;99.90;;;;;;5056874;28;20036;-82
2023/03/22 05:23:28;;;;;;;10.63;4.20;;;10.10;99.90;;;;;;5056498;28;20044;-81
2023/03/22 05:25:57;;;;;;;8.98;4.05;;;10.10;99.90;;;;;;5041301;28;20071;-85
2023/03/22 05:28:23;;;;;;;8.43;3.85;;;10.10;99.90;;;;;;5073828;28;20036;-83
2023/03/22 05:30:50;;;;;;;14.55;4.32;;;10.10;99.90;;;;;;5041701;28;20385;-85
2023/03/22 05:33:20;;;;;;;10.75;4.80;;;10.10;99.90;;;;;;5073925;28;20119;-84
2023/03/22 05:35:46;;;;;;;8.80;4.38;;;10.20;99.90;;;;;;5075139;28;20020;-86
2023/03/22 05:38:12;;;;;;;14.13;4.75;;;10.20;99.90;;;;;;5075169;28;20037;-84
2023/03/22 05:40:38;;;;;;;10.13;4.90;;;10.20;99.90;;;;;;5041127;28;20040;-85
2023/03/22 05:43:04;;;;;;;10.55;4.80;;;10.30;99.90;;;;;;5074291;28;20048;-83
2023/03/22 05:45:31;;;;;;;13.68;5.22;;;10.30;99.90;;;;;;5057248;28;20102;-86
2023/03/22 05:47:57;;;;;;;13.20;4.85;;;10.20;99.90;;;;;;5056855;28;20044;-83
2023/03/22 05:50:23;;;;;;;17.63;5.70;;;10.20;99.90;;;;;;5073591;28;20334;-85
2023/03/22 05:52:52;;;;;;;14.02;5.35;;;10.10;99.90;;;;;;5074771;28;20076;-84
2023/03/22 05:55:18;;;;;;;14.20;5.50;;;10.20;99.90;;;;;;5073089;28;20036;-84
2023/03/22 05:57:45;;;;;;;;;;;10.20;99.90;;;;;;5058185;28;20033;-84
2023/03/22 06:00:15;;;;;;;13.63;5.80;;;10.10;99.90;;;;;;5074601;28;19970;-85
2023/03/22 06:02:42;;;;;;;8.60;4.88;;;10.10;99.90;;;;;;5056185;28;20278;-86
2023/03/22 06:05:11;;;;;;;13.35;5.68;;;10.10;99.90;;;;;;5056047;28;20111;-86
2023/03/22 06:07:38;;;;;;;10.43;5.32;;;10.20;99.90;;;;;;5072897;28;20040;-86
2023/03/22 06:10:05;;;;;;;;;;;10.10;99.90;;;;;;5073987;28;20036;-85
2023/03/22 06:12:31;;;;;;;11.13;5.30;;;10.10;99.90;;;;;;5056729;28;20024;-85
2023/03/22 06:14:57;;;;;;;14.77;5.05;;;10.10;99.90;;;;;;5074183;28;20396;-85
2023/03/22 06:17:23;;;;;;;8.75;5.07;;;10.10;99.90;;;;;;5056808;28;20032;-85
2023/03/22 06:19:49;;;;;;;11.30;5.03;;;10.10;99.90;;;;;;5074110;28;20037;-85
2023/03/22 06:22:16;;;;;;;12.77;6.05;;;10.00;99.90;;;;;;5024740;28;20094;-85
2023/03/22 06:24:41;;;;;;;;;;;10.00;99.90;;;;;;5073362;28;20072;-85
2023/03/22 06:27:08;;;;;;;14.05;6.43;;;10.10;99.90;;;;;;5089911;28;20383;-85
2023/03/22 06:29:34;;;;;;;10.23;5.78;;;10.10;99.90;;;;;;5072272;28;20038;-85
2023/03/22 06:32:00;;;;;;;14.65;7.07;;;10.20;99.90;;;;;;5056424;28;20090;-85
2023/03/22 06:34:26;;;;;;;12.30;6.22;;;10.20;99.90;;;;;;5056412;28;20025;-84
2023/03/22 06:36:52;;;;;;;12.50;5.45;;;10.20;99.90;;;;;;5040470;28;20029;-85
2023/03/22 06:39:19;;;;;;;12.80;6.13;;;10.20;99.90;;;;;;5056296;28;20089;-85
2023/03/22 06:41:45;;;;;;;11.80;5.72;;;10.20;99.90;;;;;;5038426;28;20033;-85
2023/03/22 06:44:11;;;;;;;15.18;6.40;;;10.20;99.90;;;;;;5072922;28;20051;-85
2023/03/22 06:46:37;;;;;;;15.35;7.38;;;10.20;99.90;;;;;;5055489;28;20420;-86
2023/03/22 06:49:03;;;;;;;15.85;6.65;;;10.30;99.90;;;;;;5056398;28;20039;-84
2023/03/22 06:51:29;;;;;;;;;;;10.40;99.90;;;;;;5073660;28;20098;-85
2023/03/22 06:53:55;;;;;;;11.25;5.20;;;10.30;99.90;;;;;;5056366;28;19920;-85
2023/03/22 06:56:21;;;;;;;9.63;5.60;;;10.40;99.90;;;;;;5072363;28;20039;-85
2023/03/22 06:58:47;;;;;;;14.60;6.57;;;10.40;99.90;;;;;;5055642;28;20036;-85
2023/03/22 07:01:13;;;;;;;17.67;6.47;;;10.50;99.90;;;;;;5070570;28;20039;-85
2023/03/22 07:03:39;;;;;;;10.13;5.63;;;10.40;99.90;;;;;;5072655;28;20080;-85
2023/03/22 07:06:07;;;;;;;14.13;5.40;;;10.50;99.90;;;;;;5039433;28;20093;-85
2023/03/22 07:08:34;;;;;;;13.65;5.82;;;10.50;99.90;;;;;;5072013;28;20056;-86
2023/03/22 07:11:00;;;;;;;11.25;5.30;;;10.60;99.90;;;;;;5072598;28;20147;-85
2023/03/22 07:13:26;;;;;;;13.73;5.95;;;10.80;99.90;;;;;;5054674;28;20052;-85
2023/03/22 07:16:00;;;;;;;14.20;5.65;;;11.00;99.90;;;;;;5055406;28;20029;-84
2023/03/22 07:18:26;;;;;;;16.55;5.75;;;10.90;99.90;;;;;;5071792;28;20591;-84
2023/03/22 07:20:52;;;;;;;12.38;5.03;;;11.00;99.90;;;;;;5055654;28;20117;-85
2023/03/22 07:23:19;;;;;;;11.05;5.03;;;11.10;99.90;;;;;;5054609;28;20048;-86
2023/03/22 07:25:45;;;;;;;9.73;5.15;;;11.10;99.90;;;;;;5055694;28;20032;-86
2023/03/22 07:28:11;;;;;;;9.35;5.25;;;11.10;99.90;;;;;;5055071;28;20036;-85
2023/03/22 07:30:38;;;;;;;9.38;4.97;;;11.10;99.90;;;;;;5054932;28;20562;-85
2023/03/22 07:33:05;;;;;;;12.88;4.97;;;11.10;99.90;;;;;;5053920;28;20041;-85
2023/03/22 07:35:32;;;;;;;12.88;5.22;;;11.10;99.90;;;;;;5054581;28;20377;-85
2023/03/22 07:37:58;;;;;;;12.40;5.30;;;11.10;99.90;;;;;;5055197;28;20036;-85
2023/03/22 07:40:24;;;;;;;7.93;4.40;;;11.00;99.90;;;;;;5056269;28;20143;-84
2023/03/22 07:42:50;;;;;;;13.95;3.75;;;11.10;99.90;;;;;;5055665;28;20070;-84
2023/03/22 07:45:18;;;;;;;8.85;4.65;;;11.10;99.90;;;;;;5071720;28;20130;-85
2023/03/22 07:47:44;;;;;;;8.80;4.70;;;11.20;99.90;;;;;;5072012;28;20045;-84
2023/03/22 07:50:11;;;;;;;12.73;4.95;;;11.20;99.90;;;;;;5072153;28;20028;-85
2023/03/22 07:52:38;;;;;;;10.55;4.60;;;11.20;99.90;;;;;;5054049;28;20048;-81
2023/03/22 07:55:04;;;;;;;11.35;4.80;;;11.20;99.90;;;;;;5038867;28;20036;-84
2023/03/22 07:57:30;;;;;;;11.30;4.47;;;11.20;99.90;;;;;;5054047;28;20437;-84
2023/03/22 07:59:56;;;;;;;8.75;4.95;;;11.30;99.90;;;;;;5071640;28;20036;-83
2023/03/22 08:02:22;;;;;;;11.63;4.60;;;11.20;99.90;;;;;;5054970;28;20032;-84
2023/03/22 08:04:49;;;;;;;8.95;4.25;;;11.30;99.90;;;;;;5054883;28;20293;-84
2023/03/22 08:07:17;;;;;;;11.55;4.70;;;11.30;99.90;;;;;;5071368;28;20105;-84
2023/03/22 08:09:43;;;;;;;10.88;3.85;;;11.50;99.90;;;;;;5055070;28;20090;-83
2023/03/22 08:12:09;;;;;;;7.32;3.67;;;11.70;99.90;;;;;;5071176;28;20104;-84
2023/03/22 08:14:36;;;;;;;9.52;4.28;;;11.80;99.90;;;;;;5054422;28;20108;-83
2023/03/22 08:17:05;;;;;;;12.02;4.43;;;11.80;99.90;;;;;;5071252;28;20033;-84
2023/03/22 08:19:32;;;;;;;8.90;4.25;;;11.70;99.90;;;;;;5071102;28;20029;-84
2023/03/22 08:21:58;;;;;;;13.23;4.35;;;11.70;99.90;;;;;;5068815;28;20029;-84
2023/03/22 08:24:25;;;;;;;8.15;4.25;;;11.60;99.90;;;;;;5054741;28;20039;-84
2023/03/22 08:26:50;;;;;;;;;;;11.70;99.90;;;;;;5070857;28;20037;-84
2023/03/22 08:29:17;;;;;;;9.55;3.38;;;11.70;99.90;;;;;;5070706;28;19917;-84
2023/03/22 08:31:43;;;;;;;6.28;3.47;;;11.70;99.90;;;;;;5054067;28;20037;-84
2023/03/22 08:34:09;;;;;;;5.30;2.65;;;11.70;99.90;;;;;;5054959;28;20117;-84
2023/03/22 08:36:36;;;;;;;11.68;4.00;;;11.80;99.90;;;;;;5054111;28;20041;-83
2023/03/22 08:39:03;;;;;;;10.27;3.92;;;11.70;99.90;;;;;;5053950;28;20036;-84
2023/03/22 08:41:28;;;;;;;8.40;3.70;;;11.80;99.90;;;;;;5054010;28;20041;-83
2023/03/22 08:43:55;;;;;;;9.23;3.65;;;11.90;99.90;;;;;;5070539;28;20064;-85
2023/03/22 08:46:20;;;;;;;5.43;2.78;;;11.90;99.90;;;;;;5037348;28;20068;-84
2023/03/22 08:48:52;;;;;;;8.15;3.65;;;11.90;99.90;;;;;;5054011;28;20575;-84
2023/03/22 08:51:19;;;;;;;10.38;3.05;;;11.90;99.90;;;;;;5054205;28;20044;-84
2023/03/22 08:53:46;;;;;;;6.97;3.40;;;11.90;99.90;;;;;;5070699;28;20041;-85
2023/03/22 08:56:15;;;;;;;10.68;3.40;;;11.90;99.90;;;;;;5054562;28;20032;-85
2023/03/22 08:58:47;;;;;;;6.68;2.88;;;11.90;99.90;;;;;;5037788;28;20068;-85
2023/03/22 09:01:14;;;;;;;7.63;3.25;;;12.10;99.90;;;;;;5054032;28;20032;-84
2023/03/22 09:03:40;;;;;;;5.68;2.97;;;12.10;99.90;;;;;;5070524;28;20048;-85
2023/03/22 09:06:06;;;;;;;9.05;3.30;;;12.20;99.90;;;;;;5054457;28;20051;-85
2023/03/22 09:08:32;;;;;;;;;;;12.20;99.90;;;;;;5071690;28;20095;-85
2023/03/22 09:10:58;;;;;;;7.80;2.88;;;12.30;99.90;;;;;;5071192;28;19917;-84
2023/03/22 09:13:24;;;;;;;6.28;2.35;;;12.30;99.90;;;;;;5069989;28;20111;-84
2023/03/22 09:15:53;;;;;;;8.48;2.78;;;12.10;99.90;;;;;;5070300;28;20043;-85
2023/03/22 09:18:19;;;;;;;6.57;3.10;;;12.10;99.90;;;;;;5053805;28;20549;-85
2023/03/22 09:20:45;;;;;;;8.95;3.08;;;12.20;99.90;;;;;;5037155;28;20071;-85
2023/03/22 09:23:14;;;;;;;6.57;2.33;;;12.10;99.90;;;;;;5053341;28;20032;-84
2023/03/22 09:25:42;;;;;;;10.70;2.70;;;12.10;99.90;;;;;;5053206;28;20045;-85
2023/03/22 09:28:08;;;;;;;7.30;3.50;;;12.10;99.90;;;;;;5053598;28;20040;-85
2023/03/22 09:30:35;;;;;;;5.80;2.53;;;12.10;99.90;;;;;;5070136;28;20048;-84
2023/03/22 09:33:01;;;;;;;;;;;12.00;99.90;;;;;;5053715;28;20116;-85
2023/03/22 09:35:27;;;;;;;4.38;2.22;;;12.20;99.90;;;;;;5070557;28;20009;-85
2023/03/22 09:37:53;;;;;;;5.80;2.05;;;12.20;99.90;;;;;;5053693;28;20068;-87
2023/03/22 09:40:24;;;;;;;8.00;2.88;;;12.10;99.90;;;;;;5053567;28;20036;-82
2023/03/22 09:42:53;;;;;;;6.60;2.42;;;12.10;99.90;;;;;;5052504;28;20071;-82
2023/03/22 09:45:36;;;;;;;11.43;3.00;;;12.10;99.90;;;;;;5068340;28;20529;-80
2023/03/22 09:48:05;;;;;;;5.45;2.38;;;12.10;99.90;;;;;;5050620;28;20040;-80
2023/03/22 09:50:35;;;;;;;5.88;2.88;;;12.10;99.90;;;;;;5068657;28;20036;-79
2023/03/22 09:53:00;;;;;;;6.57;2.67;;;12.10;99.90;;;;;;5068881;28;20121;-80
2023/03/22 09:56:05;;;;;;;8.30;3.22;;;12.10;99.90;;;;;;5069168;28;20041;-80
2023/03/22 09:59:21;;;;;;;6.32;2.20;;;12.90;99.90;;;;;;5065652;28;20141;-80
2023/03/22 10:02:00;;;;;;;6.35;2.30;;;12.00;99.90;;;;;;5017337;28;20037;-80
2023/03/22 10:04:49;;;;;;;5.07;2.05;;;11.90;99.90;;;;;;5034751;28;20045;-80
2023/03/22 10:07:59;;;;;;;9.40;2.90;;;11.70;99.90;;;;;;5056701;28;20077;-79
2023/03/22 10:10:25;;;;;;;5.30;2.42;;;11.70;99.90;;;;;;5071802;28;20869;-78
2023/03/22 10:13:18;;;;;;;12.88;2.70;;;11.60;99.90;;;;;;5055037;28;20040;-78
2023/03/22 10:16:05;;;;;;;6.65;3.03;;;11.50;99.90;;;;;;5070987;28;20043;-78
2023/03/22 10:18:37;;;;;;;5.50;3.05;;;11.50;99.90;;;;;;5072083;28;20045;-78
2023/03/22 10:21:06;;;;;;;5.63;2.75;;;11.30;99.90;;;;;;5071472;28;20060;-78
2023/03/22 10:23:38;;;;;;;7.80;2.78;;;11.20;99.90;;;;;;5071321;28;20047;-78
2023/03/22 10:26:07;;;;;;;11.38;3.20;;;11.20;99.90;;;;;;5069372;28;20545;-78
2023/03/22 10:28:46;;;;;;;5.88;2.60;;;11.20;99.90;;;;;;5071633;28;20040;-78
2023/03/22 10:31:16;;;;;;;3.30;2.55;;;11.20;99.90;;;;;;5069055;28;20101;-78
2023/03/22 10:33:54;;;;;;;11.32;3.47;;;11.30;99.90;;;;;;5054991;28;20500;-78
2023/03/22 10:36:23;;;;;;;8.25;3.47;;;11.10;99.90;;;;;;5070095;28;20047;-78
2023/03/22 10:38:55;;;;;;;7.35;2.53;;;11.00;99.90;;;;;;5054437;28;20110;-79
2023/03/22 10:41:23;;;;;;;5.05;2.83;;;11.00;99.90;;;;;;5071452;28;20037;-78
2023/03/22 10:43:53;;;;;;;9.13;3.22;;;11.00;99.90;;;;;;5071424;28;20036;-79
2023/03/22 10:46:21;;;;;;;8.80;3.28;;;11.00;99.90;;;;;;5070870;28;20052;-79
2023/03/22 10:48:52;;;;;;;5.78;2.50;;;10.90;99.90;;;;;;5052814;28;20041;-82
2023/03/22 10:51:25;;;;;;;5.03;2.83;;;10.80;99.90;;;;;;5072358;28;20082;-83
2023/03/22 10:53:53;;;;;;;6.20;2.92;;;10.80;99.90;;;;;;5070935;28;20570;-83
2023/03/22 10:56:20;;;;;;;8.15;2.80;;;10.80;99.90;;;;;;5055609;28;20033;-83
2023/03/22 10:58:48;;;;;;;8.45;3.30;;;10.80;99.90;;;;;;5055271;28;20044;-83
2023/03/22 11:01:26;;;;;;;6.43;2.72;;;10.80;99.90;;;;;;5071780;28;20040;-84
2023/03/22 11:04:12;;;;;;;6.25;2.78;;;10.80;99.90;;;;;;5069966;28;20455;-83
2023/03/22 11:06:47;;;;;;;7.03;2.65;;;10.90;99.90;;;;;;5054499;28;20040;-84
2023/03/22 11:09:17;;;;;;;6.40;2.50;;;10.80;99.90;;;;;;5070113;28;20397;-84
2023/03/22 11:11:52;;;;;;;8.98;3.33;;;10.80;99.90;;;;;;5055680;28;20040;-84
2023/03/22 11:14:28;;;;;;;4.35;2.53;;;10.80;99.90;;;;;;5067865;28;20717;-84
2023/03/22 11:17:05;;;;;;;8.88;3.53;;;10.80;99.90;;;;;;5069643;28;20044;-84
2023/03/22 11:19:37;;;;;;;8.30;3.38;;;10.80;99.90;;;;;;5070055;28;20029;-84
2023/03/22 11:22:24;;;;;;;8.55;3.08;;;10.80;99.90;;;;;;5071544;28;20086;-83
2023/03/22 11:24:51;;;;;;;6.75;2.65;;;10.90;99.90;;;;;;5069769;28;20037;-84
2023/03/22 11:27:27;;;;;;;;;;;10.90;99.90;;;;;;5055956;28;20032;-83
2023/03/22 11:29:57;;;;;;;4.85;2.88;;;10.90;99.90;;;;;;5071468;28;19920;-83
2023/03/22 11:32:36;;;;;;;6.07;2.97;;;10.90;99.90;;;;;;5053939;28;20056;-83
2023/03/22 11:35:12;;;;;;;5.43;2.78;;;10.90;99.90;;;;;;5068943;28;20039;-83
2023/03/22 11:37:47;;;;;;;5.80;3.22;;;10.90;99.90;;;;;;5054614;28;20029;-83
2023/03/22 11:40:19;;;;;;;10.88;3.25;;;10.90;99.90;;;;;;5070555;28;20037;-83
2023/03/22 11:42:46;;;;;;;11.50;2.80;;;10.90;99.90;;;;;;5069231;28;20123;-83
2023/03/22 11:45:25;;;;;;;5.68;2.85;;;11.00;99.90;;;;;;5070566;28;20045;-82
2023/03/22 11:47:52;;;;;;;8.35;2.80;;;11.00;99.90;;;;;;5071738;28;20052;-83
2023/03/22 11:50:36;;;;;;;;;;;11.00;99.90;;;;;;5072000;28;20369;-83
2023/03/22 11:53:05;;;;;;;7.70;2.53;;;11.00;99.90;;;;;;5068531;28;19967;-83
2023/03/22 11:55:35;;;;;;;5.13;2.30;;;11.10;99.90;;;;;;5071222;28;20051;-82
2023/03/22 11:58:02;;;;;;;4.65;2.17;;;11.10;99.90;;;;;;5070656;28;20043;-82
2023/03/22 12:00:36;;;;;;;9.27;2.30;;;11.10;99.90;;;;;;5070955;28;20037;-82
2023/03/22 12:03:02;;;;;;;6.40;2.58;;;11.00;99.90;;;;;;5070963;28;20043;-82
2023/03/22 12:05:30;;;;;;;5.43;2.40;;;11.00;99.90;;;;;;5054038;28;20101;-83
2023/03/22 12:08:08;;;;;;;4.70;2.40;;;11.10;99.90;;;;;;5071183;28;20642;-84
2023/03/22 12:10:43;;;;;;;5.85;2.53;;;11.00;99.90;;;;;;5069555;28;20488;-83
2023/03/22 12:13:24;;;;;;;5.38;2.33;;;11.10;99.90;;;;;;5070437;28;20044;-84
2023/03/22 12:15:56;;;;;;;4.60;2.40;;;11.10;99.90;;;;;;5084802;28;20040;-85
2023/03/22 12:18:29;;;;;;;7.78;2.17;;;11.10;99.90;;;;;;5071123;28;20048;-84
2023/03/22 12:20:57;;;;;;;6.38;2.40;;;11.20;99.90;;;;;;5053827;28;20036;-84
2023/03/22 12:23:27;;;;;;;5.35;2.05;;;11.10;99.90;;;;;;5054692;28;20051;-83
2023/03/22 12:25:59;;;;;;;3.15;1.90;;;11.20;99.90;;;;;;5071210;28;20542;-83
2023/03/22 12:28:37;;;;;;;6.82;2.40;;;11.10;99.90;;;;;;5066569;28;20041;-82
2023/03/22 12:31:06;;;;;;;5.07;2.55;;;11.10;99.90;;;;;;5053617;28;20036;-83
2023/03/22 12:33:39;;;;;;;8.88;2.58;;;11.10;99.90;;;;;;5054294;28;20044;-82
2023/03/22 12:36:06;;;;;;;6.57;2.20;;;11.00;99.90;;;;;;5070642;28;20093;-82
2023/03/22 12:38:55;;;;;;;6.82;2.30;;;11.20;99.90;;;;;;5070937;28;20032;-83
2023/03/22 12:41:36;;;;;;;7.57;2.63;;;11.30;99.90;;;;;;5069523;28;20111;-83
2023/03/22 12:44:11;;;;;;;3.72;2.13;;;11.10;99.90;;;;;;5070582;28;20048;-83
2023/03/22 12:46:56;;;;;;;4.85;2.50;;;11.00;99.90;;;;;;5069605;28;20055;-84
2023/03/22 12:49:40;;;;;;;6.75;2.60;;;11.00;99.90;;;;;;5051119;28;20392;-83
2023/03/22 12:52:20;;;;;;;5.82;2.78;;;11.00;99.90;;;;;;5051052;28;20036;-80
2023/03/22 12:54:49;;;;;;;5.60;2.88;;;11.00;99.90;;;;;;5067633;28;20049;-81
2023/03/22 12:57:15;;;;;;;8.02;3.13;;;10.90;99.90;;;;;;5070254;28;20495;-82
2023/03/22 12:59:44;;;;;;;10.18;2.95;;;10.80;99.90;;;;;;5070470;28;20037;-82
2023/03/22 13:02:26;;;;;;;8.57;3.35;;;10.80;99.90;;;;;;5053849;28;20714;-83
2023/03/22 13:04:57;;;;;;;6.70;3.63;;;10.80;99.90;;;;;;5068147;28;20075;-83